AUA182 EDDM-LOWW
Flight info
| Callsign | AUA182 |
|---|---|
| Flight time | 0h 42m |
| Altitude | 23000 |
| Route | KIRDI4N KIRDI DCT BUWOQ DCT MASUR MASUR3W |
| Aircraft | A320/M-SDE3FGHIRWY/LB1 |
Departure
| Time | 2026-05-07 06:09 |
|---|---|
| Airport | Munich Airport (EDDM) |
Arrival
| Time | 2026-05-07 06:52 |
|---|---|
| Airport | Vienna International Airport (LOWW) |
| Time | Latitude | Longitude | Altitude | Speed | Heading |
|---|---|---|---|---|---|
| 2026-05-07 05:15 | 48.35631 | 11.79977 | 1485 ft | 0 kts | 263° |
| 2026-05-07 06:00 | 48.35634 | 11.80006 | 1473 ft | 4 kts | 263° |
| 2026-05-07 06:00 | 48.35636 | 11.80040 | 1477 ft | 3 kts | 263° |
| 2026-05-07 06:01 | 48.35645 | 11.80067 | 1481 ft | 4 kts | 187° |
| 2026-05-07 06:01 | 48.35670 | 11.80065 | 1479 ft | 3 kts | 173° |
| 2026-05-07 06:01 | 48.35674 | 11.80065 | 1478 ft | 0 kts | 173° |
| 2026-05-07 06:04 | 48.35656 | 11.80068 | 1474 ft | 9 kts | 173° |
| 2026-05-07 06:04 | 48.35560 | 11.80084 | 1475 ft | 16 kts | 174° |
| 2026-05-07 06:04 | 48.35444 | 11.80104 | 1475 ft | 18 kts | 173° |
| 2026-05-07 06:04 | 48.35329 | 11.80132 | 1484 ft | 17 kts | 173° |
| 2026-05-07 06:05 | 48.35207 | 11.80153 | 1485 ft | 18 kts | 173° |
| 2026-05-07 06:05 | 48.35117 | 11.80151 | 1479 ft | 9 kts | 213° |
| 2026-05-07 06:05 | 48.35098 | 11.80045 | 1474 ft | 15 kts | 263° |
| 2026-05-07 06:05 | 48.35083 | 11.79856 | 1473 ft | 19 kts | 263° |
| 2026-05-07 06:06 | 48.35056 | 11.79682 | 1476 ft | 15 kts | 223° |
| 2026-05-07 06:06 | 48.34954 | 11.79676 | 1481 ft | 16 kts | 173° |
| 2026-05-07 06:06 | 48.34840 | 11.79697 | 1484 ft | 15 kts | 168° |
| 2026-05-07 06:06 | 48.34811 | 11.79820 | 1475 ft | 13 kts | 83° |
| 2026-05-07 06:07 | 48.34822 | 11.79957 | 1485 ft | 16 kts | 83° |
| 2026-05-07 06:07 | 48.34822 | 11.80134 | 1480 ft | 16 kts | 115° |
| 2026-05-07 06:07 | 48.34748 | 11.80239 | 1483 ft | 14 kts | 163° |
| 2026-05-07 06:07 | 48.34654 | 11.80256 | 1484 ft | 14 kts | 173° |
| 2026-05-07 06:08 | 48.34552 | 11.80274 | 1484 ft | 16 kts | 173° |
| 2026-05-07 06:08 | 48.34464 | 11.80230 | 1475 ft | 13 kts | 246° |
| 2026-05-07 06:08 | 48.34450 | 11.80064 | 1472 ft | 27 kts | 263° |
| 2026-05-07 06:08 | 48.34400 | 11.79415 | 1486 ft | 95 kts | 263° |
| 2026-05-07 06:09 | 48.34339 | 11.78626 | 1482 ft | 133 kts | 263° |
| 2026-05-07 06:09 | 48.34217 | 11.77047 | 1703 ft | 159 kts | 263° |
| 2026-05-07 06:09 | 48.34099 | 11.75405 | 2428 ft | 159 kts | 263° |
| 2026-05-07 06:09 | 48.33976 | 11.73760 | 3200 ft | 158 kts | 263° |
| 2026-05-07 06:10 | 48.33755 | 11.72078 | 3612 ft | 177 kts | 243° |
| 2026-05-07 06:10 | 48.32737 | 11.70878 | 3986 ft | 206 kts | 199° |
| 2026-05-07 06:10 | 48.31270 | 11.70602 | 4686 ft | 217 kts | 188° |
| 2026-05-07 06:10 | 48.29739 | 11.70571 | 5421 ft | 225 kts | 184° |
| 2026-05-07 06:11 | 48.28136 | 11.71260 | 5790 ft | 262 kts | 151° |
| 2026-05-07 06:11 | 48.26900 | 11.73440 | 6300 ft | 291 kts | 115° |
| 2026-05-07 06:11 | 48.26401 | 11.76452 | 7077 ft | 300 kts | 99° |
| 2026-05-07 06:11 | 48.26201 | 11.79590 | 7954 ft | 303 kts | 95° |
| 2026-05-07 06:12 | 48.26116 | 11.82765 | 8854 ft | 306 kts | 93° |
| 2026-05-07 06:12 | 48.26052 | 11.85968 | 9771 ft | 308 kts | 94° |
| 2026-05-07 06:12 | 48.25965 | 11.89214 | 10367 ft | 321 kts | 95° |
| 2026-05-07 06:12 | 48.25835 | 11.92680 | 10623 ft | 344 kts | 95° |
| 2026-05-07 06:13 | 48.25667 | 11.96326 | 11150 ft | 355 kts | 96° |
| 2026-05-07 06:13 | 48.25479 | 12.00052 | 11860 ft | 360 kts | 96° |
| 2026-05-07 06:13 | 48.25276 | 12.03821 | 12601 ft | 364 kts | 97° |
| 2026-05-07 06:13 | 48.25062 | 12.07630 | 13338 ft | 368 kts | 97° |
| 2026-05-07 06:14 | 48.24844 | 12.11480 | 14036 ft | 372 kts | 96° |
| 2026-05-07 06:14 | 48.24627 | 12.15363 | 14735 ft | 374 kts | 96° |
| 2026-05-07 06:14 | 48.24410 | 12.19261 | 15442 ft | 376 kts | 96° |
| 2026-05-07 06:14 | 48.24193 | 12.23172 | 16160 ft | 377 kts | 97° |
| 2026-05-07 06:15 | 48.23975 | 12.27102 | 16861 ft | 379 kts | 96° |
| 2026-05-07 06:15 | 48.23756 | 12.31041 | 17556 ft | 380 kts | 97° |
| 2026-05-07 06:15 | 48.23534 | 12.35002 | 18231 ft | 383 kts | 97° |
| 2026-05-07 06:15 | 48.23309 | 12.38997 | 18803 ft | 386 kts | 97° |
| 2026-05-07 06:16 | 48.23079 | 12.43023 | 19344 ft | 389 kts | 97° |
| 2026-05-07 06:16 | 48.22844 | 12.47092 | 19873 ft | 393 kts | 98° |
| 2026-05-07 06:16 | 48.22606 | 12.51190 | 20399 ft | 397 kts | 98° |
| 2026-05-07 06:16 | 48.22365 | 12.55336 | 20923 ft | 401 kts | 98° |
| 2026-05-07 06:17 | 48.22120 | 12.59527 | 21442 ft | 405 kts | 99° |
| 2026-05-07 06:17 | 48.21871 | 12.63766 | 21963 ft | 409 kts | 99° |
| 2026-05-07 06:17 | 48.21617 | 12.68039 | 22481 ft | 413 kts | 99° |
| 2026-05-07 06:17 | 48.21356 | 12.72348 | 22889 ft | 417 kts | 100° |
| 2026-05-07 06:18 | 48.21091 | 12.76667 | 22968 ft | 414 kts | 100° |
| 2026-05-07 06:18 | 48.20834 | 12.80960 | 22982 ft | 412 kts | 99° |
| 2026-05-07 06:18 | 48.20810 | 12.85274 | 22982 ft | 415 kts | 93° |
| 2026-05-07 06:18 | 48.20885 | 12.89603 | 22980 ft | 415 kts | 94° |
| 2026-05-07 06:19 | 48.20955 | 12.93926 | 22983 ft | 416 kts | 94° |
| 2026-05-07 06:19 | 48.21020 | 12.98253 | 22984 ft | 416 kts | 94° |
| 2026-05-07 06:19 | 48.21084 | 13.02587 | 22982 ft | 416 kts | 94° |
| 2026-05-07 06:19 | 48.21144 | 13.06921 | 22981 ft | 416 kts | 94° |
| 2026-05-07 06:20 | 48.21202 | 13.11268 | 22985 ft | 416 kts | 94° |
| 2026-05-07 06:20 | 48.21257 | 13.15586 | 22979 ft | 416 kts | 95° |
| 2026-05-07 06:20 | 48.21309 | 13.19936 | 22973 ft | 416 kts | 95° |
| 2026-05-07 06:20 | 48.21360 | 13.24258 | 22974 ft | 416 kts | 95° |
| 2026-05-07 06:21 | 48.21413 | 13.28602 | 22975 ft | 416 kts | 95° |
| 2026-05-07 06:21 | 48.21465 | 13.32916 | 22971 ft | 416 kts | 95° |
| 2026-05-07 06:21 | 48.21515 | 13.37266 | 22969 ft | 416 kts | 95° |
| 2026-05-07 06:21 | 48.21562 | 13.41548 | 22968 ft | 416 kts | 95° |
| 2026-05-07 06:22 | 48.21606 | 13.45888 | 22970 ft | 416 kts | 95° |
| 2026-05-07 06:22 | 48.21685 | 13.54567 | 22967 ft | 416 kts | 95° |
| 2026-05-07 06:22 | 48.21724 | 13.58905 | 22966 ft | 416 kts | 95° |
| 2026-05-07 06:23 | 48.21764 | 13.63245 | 22962 ft | 416 kts | 95° |
| 2026-05-07 06:23 | 48.21804 | 13.67580 | 22968 ft | 416 kts | 95° |
| 2026-05-07 06:23 | 48.21843 | 13.71919 | 22967 ft | 416 kts | 96° |
| 2026-05-07 06:23 | 48.21883 | 13.76265 | 22973 ft | 416 kts | 96° |
| 2026-05-07 06:24 | 48.21917 | 13.80592 | 22975 ft | 416 kts | 96° |
| 2026-05-07 06:24 | 48.21944 | 13.84932 | 22974 ft | 416 kts | 96° |
| 2026-05-07 06:24 | 48.21968 | 13.89316 | 22975 ft | 416 kts | 96° |
| 2026-05-07 06:24 | 48.21991 | 13.93661 | 22979 ft | 416 kts | 96° |
| 2026-05-07 06:25 | 48.22125 | 13.97953 | 22981 ft | 421 kts | 89° |
| 2026-05-07 06:25 | 48.22731 | 14.02281 | 22982 ft | 428 kts | 78° |
| 2026-05-07 06:25 | 48.23652 | 14.06544 | 22984 ft | 429 kts | 77° |
| 2026-05-07 06:25 | 48.24573 | 14.10799 | 22984 ft | 429 kts | 77° |
| 2026-05-07 06:26 | 48.25484 | 14.15062 | 22985 ft | 429 kts | 77° |
| 2026-05-07 06:26 | 48.26389 | 14.19331 | 22987 ft | 429 kts | 77° |
| 2026-05-07 06:26 | 48.27288 | 14.23589 | 22984 ft | 429 kts | 78° |
| 2026-05-07 06:26 | 48.28189 | 14.27870 | 22984 ft | 429 kts | 78° |
| 2026-05-07 06:27 | 48.29087 | 14.32143 | 22984 ft | 429 kts | 78° |
| 2026-05-07 06:27 | 48.29987 | 14.36415 | 22983 ft | 430 kts | 78° |
| 2026-05-07 06:27 | 48.30889 | 14.40695 | 22978 ft | 430 kts | 78° |
| 2026-05-07 06:27 | 48.31788 | 14.44972 | 22973 ft | 430 kts | 78° |
| 2026-05-07 06:28 | 48.32685 | 14.49261 | 22974 ft | 430 kts | 78° |
| 2026-05-07 06:28 | 48.33578 | 14.53548 | 22973 ft | 430 kts | 78° |
| 2026-05-07 06:28 | 48.34470 | 14.57835 | 22970 ft | 430 kts | 78° |
| 2026-05-07 06:28 | 48.35362 | 14.62130 | 22964 ft | 430 kts | 78° |
| 2026-05-07 06:29 | 48.36250 | 14.66419 | 22959 ft | 430 kts | 78° |
| 2026-05-07 06:29 | 48.37137 | 14.70700 | 22959 ft | 430 kts | 77° |
| 2026-05-07 06:29 | 48.38028 | 14.75000 | 22959 ft | 430 kts | 77° |
| 2026-05-07 06:29 | 48.38919 | 14.79295 | 22960 ft | 430 kts | 77° |
| 2026-05-07 06:30 | 48.39807 | 14.83592 | 22963 ft | 430 kts | 78° |
| 2026-05-07 06:30 | 48.40692 | 14.87902 | 22959 ft | 430 kts | 78° |
| 2026-05-07 06:30 | 48.41581 | 14.92250 | 22904 ft | 428 kts | 78° |
| 2026-05-07 06:30 | 48.42438 | 14.96433 | 22628 ft | 419 kts | 77° |
| 2026-05-07 06:31 | 48.43287 | 15.00579 | 22354 ft | 412 kts | 77° |
| 2026-05-07 06:31 | 48.44125 | 15.04685 | 21947 ft | 407 kts | 78° |
| 2026-05-07 06:31 | 48.44950 | 15.08763 | 21429 ft | 406 kts | 77° |
| 2026-05-07 06:31 | 48.45767 | 15.12821 | 20923 ft | 405 kts | 77° |
| 2026-05-07 06:32 | 48.46583 | 15.16882 | 20394 ft | 404 kts | 77° |
| 2026-05-07 06:32 | 48.47395 | 15.20917 | 19867 ft | 403 kts | 77° |
| 2026-05-07 06:32 | 48.48211 | 15.24961 | 19353 ft | 402 kts | 77° |
| 2026-05-07 06:32 | 48.49025 | 15.28987 | 18836 ft | 401 kts | 77° |
| 2026-05-07 06:33 | 48.49831 | 15.33002 | 18319 ft | 400 kts | 77° |
| 2026-05-07 06:33 | 48.50631 | 15.37020 | 17761 ft | 399 kts | 78° |
| 2026-05-07 06:33 | 48.51098 | 15.41084 | 17262 ft | 390 kts | 91° |
| 2026-05-07 06:33 | 48.50996 | 15.45112 | 16782 ft | 380 kts | 103° |
| 2026-05-07 06:34 | 48.50380 | 15.48883 | 16537 ft | 365 kts | 115° |
| 2026-05-07 06:34 | 48.49375 | 15.52338 | 16237 ft | 354 kts | 120° |
| 2026-05-07 06:34 | 48.48327 | 15.55660 | 15948 ft | 348 kts | 120° |
| 2026-05-07 06:34 | 48.47294 | 15.58934 | 15665 ft | 343 kts | 120° |
| 2026-05-07 06:35 | 48.46268 | 15.62176 | 15382 ft | 341 kts | 120° |
| 2026-05-07 06:35 | 48.45247 | 15.65393 | 15103 ft | 340 kts | 120° |
| 2026-05-07 06:35 | 48.44241 | 15.68560 | 14829 ft | 339 kts | 120° |
| 2026-05-07 06:35 | 48.43224 | 15.71761 | 14549 ft | 338 kts | 120° |
| 2026-05-07 06:36 | 48.42210 | 15.74954 | 14275 ft | 337 kts | 120° |
| 2026-05-07 06:36 | 48.41205 | 15.78114 | 13996 ft | 335 kts | 119° |
| 2026-05-07 06:36 | 48.40197 | 15.81276 | 13718 ft | 334 kts | 119° |
| 2026-05-07 06:36 | 48.39195 | 15.84417 | 13429 ft | 333 kts | 119° |
| 2026-05-07 06:37 | 48.38196 | 15.87549 | 13152 ft | 331 kts | 119° |
| 2026-05-07 06:37 | 48.37200 | 15.90658 | 12873 ft | 330 kts | 119° |
| 2026-05-07 06:37 | 48.36203 | 15.93767 | 12614 ft | 328 kts | 119° |
| 2026-05-07 06:37 | 48.35215 | 15.96852 | 12339 ft | 327 kts | 119° |
| 2026-05-07 06:38 | 48.34227 | 15.99935 | 12063 ft | 326 kts | 119° |
| 2026-05-07 06:38 | 48.33243 | 16.02999 | 11799 ft | 325 kts | 119° |
| 2026-05-07 06:38 | 48.32261 | 16.06050 | 11537 ft | 323 kts | 119° |
| 2026-05-07 06:38 | 48.31286 | 16.09075 | 11294 ft | 322 kts | 119° |
| 2026-05-07 06:39 | 48.30316 | 16.12085 | 11021 ft | 321 kts | 119° |
| 2026-05-07 06:39 | 48.29343 | 16.15108 | 10776 ft | 319 kts | 119° |
| 2026-05-07 06:39 | 48.28380 | 16.18097 | 10516 ft | 318 kts | 119° |
| 2026-05-07 06:39 | 48.27417 | 16.21081 | 10253 ft | 316 kts | 119° |
| 2026-05-07 06:40 | 48.26477 | 16.23991 | 10088 ft | 303 kts | 119° |
| 2026-05-07 06:40 | 48.25575 | 16.26785 | 9625 ft | 295 kts | 120° |
| 2026-05-07 06:40 | 48.24688 | 16.29526 | 9477 ft | 291 kts | 119° |
| 2026-05-07 06:40 | 48.23801 | 16.32250 | 9347 ft | 290 kts | 120° |
| 2026-05-07 06:41 | 48.22914 | 16.34967 | 9226 ft | 289 kts | 119° |
| 2026-05-07 06:41 | 48.22032 | 16.37674 | 9100 ft | 289 kts | 120° |
| 2026-05-07 06:41 | 48.21151 | 16.40378 | 8889 ft | 288 kts | 119° |
| 2026-05-07 06:41 | 48.20275 | 16.43065 | 8650 ft | 287 kts | 120° |
| 2026-05-07 06:42 | 48.19397 | 16.45754 | 8442 ft | 286 kts | 120° |
| 2026-05-07 06:42 | 48.18518 | 16.48433 | 8220 ft | 286 kts | 120° |
| 2026-05-07 06:42 | 48.17644 | 16.51095 | 8000 ft | 285 kts | 120° |
| 2026-05-07 06:42 | 48.16772 | 16.53746 | 7771 ft | 285 kts | 118° |
| 2026-05-07 06:43 | 48.15895 | 16.56413 | 7546 ft | 284 kts | 119° |
| 2026-05-07 06:43 | 48.15019 | 16.59066 | 7323 ft | 283 kts | 118° |
| 2026-05-07 06:43 | 48.14148 | 16.61702 | 7100 ft | 283 kts | 118° |
| 2026-05-07 06:43 | 48.13278 | 16.64342 | 6871 ft | 281 kts | 117° |
| 2026-05-07 06:44 | 48.12415 | 16.66964 | 6661 ft | 280 kts | 119° |
| 2026-05-07 06:44 | 48.11324 | 16.69351 | 6432 ft | 277 kts | 134° |
| 2026-05-07 06:44 | 48.09856 | 16.71183 | 6187 ft | 275 kts | 150° |
| 2026-05-07 06:44 | 48.08119 | 16.72341 | 5970 ft | 274 kts | 165° |
| 2026-05-07 06:45 | 48.06283 | 16.73089 | 5737 ft | 273 kts | 166° |
| 2026-05-07 06:45 | 48.04450 | 16.73846 | 5516 ft | 272 kts | 166° |
| 2026-05-07 06:45 | 48.02669 | 16.74593 | 5286 ft | 258 kts | 166° |
| 2026-05-07 06:45 | 48.01004 | 16.75296 | 5081 ft | 240 kts | 166° |
| 2026-05-07 06:46 | 47.99420 | 16.75959 | 4894 ft | 233 kts | 166° |
| 2026-05-07 06:46 | 47.97883 | 16.76594 | 4690 ft | 226 kts | 167° |
| 2026-05-07 06:46 | 47.96358 | 16.76667 | 4510 ft | 215 kts | 197° |
| 2026-05-07 06:46 | 47.95087 | 16.75658 | 4319 ft | 202 kts | 226° |
| 2026-05-07 06:47 | 47.94328 | 16.73961 | 4153 ft | 196 kts | 253° |
| 2026-05-07 06:47 | 47.93955 | 16.72019 | 3979 ft | 195 kts | 255° |
| 2026-05-07 06:47 | 47.93588 | 16.70072 | 3816 ft | 194 kts | 255° |
| 2026-05-07 06:47 | 47.93257 | 16.68124 | 3613 ft | 194 kts | 266° |
| 2026-05-07 06:48 | 47.93582 | 16.66256 | 3458 ft | 187 kts | 307° |
| 2026-05-07 06:48 | 47.94207 | 16.65399 | 3391 ft | 185 kts | 331° |
| 2026-05-07 06:48 | 47.95427 | 16.64788 | 3309 ft | 187 kts | 342° |
| 2026-05-07 06:48 | 47.96672 | 16.64269 | 3148 ft | 186 kts | 341° |
| 2026-05-07 06:49 | 47.97913 | 16.63748 | 2877 ft | 184 kts | 341° |
| 2026-05-07 06:49 | 47.99137 | 16.63235 | 2607 ft | 178 kts | 340° |
| 2026-05-07 06:49 | 48.00277 | 16.62757 | 2390 ft | 164 kts | 340° |
| 2026-05-07 06:49 | 48.01358 | 16.62302 | 2181 ft | 160 kts | 340° |
| 2026-05-07 06:50 | 48.02411 | 16.61858 | 1982 ft | 152 kts | 340° |
| 2026-05-07 06:50 | 48.03390 | 16.61447 | 1772 ft | 141 kts | 339° |
| 2026-05-07 06:50 | 48.04315 | 16.61056 | 1584 ft | 136 kts | 340° |
| 2026-05-07 06:50 | 48.05224 | 16.60671 | 1410 ft | 134 kts | 340° |
| 2026-05-07 06:51 | 48.06134 | 16.60284 | 1220 ft | 139 kts | 340° |
| 2026-05-07 06:51 | 48.07056 | 16.59900 | 1013 ft | 136 kts | 342° |
| 2026-05-07 06:51 | 48.07958 | 16.59525 | 814 ft | 130 kts | 341° |
| 2026-05-07 06:51 | 48.08802 | 16.59169 | 664 ft | 124 kts | 340° |
| 2026-05-07 06:52 | 48.09564 | 16.58836 | 619 ft | 96 kts | 343° |
| 2026-05-07 06:52 | 48.10043 | 16.58635 | 612 ft | 47 kts | 344° |
| 2026-05-07 06:52 | 48.10298 | 16.58521 | 613 ft | 29 kts | 336° |
| 2026-05-07 06:52 | 48.10418 | 16.58373 | 614 ft | 21 kts | 303° |
| 2026-05-07 06:53 | 48.10488 | 16.58192 | 621 ft | 15 kts | 308° |
| 2026-05-07 06:53 | 48.10585 | 16.58127 | 614 ft | 17 kts | 344° |
| 2026-05-07 06:53 | 48.10722 | 16.58069 | 614 ft | 22 kts | 344° |
| 2026-05-07 06:53 | 48.10872 | 16.58007 | 621 ft | 23 kts | 344° |
| 2026-05-07 06:54 | 48.11027 | 16.57942 | 611 ft | 23 kts | 343° |
| 2026-05-07 06:54 | 48.11113 | 16.57851 | 617 ft | 15 kts | 297° |
| 2026-05-07 06:54 | 48.11161 | 16.57705 | 620 ft | 17 kts | 296° |
| 2026-05-07 06:54 | 48.11221 | 16.57521 | 620 ft | 21 kts | 296° |
| 2026-05-07 06:55 | 48.11284 | 16.57327 | 616 ft | 21 kts | 296° |
| 2026-05-07 06:55 | 48.11348 | 16.57129 | 615 ft | 21 kts | 296° |
| 2026-05-07 06:55 | 48.11412 | 16.56936 | 614 ft | 15 kts | 297° |
| 2026-05-07 06:55 | 48.11488 | 16.56884 | 619 ft | 14 kts | 21° |
| 2026-05-07 06:56 | 48.11582 | 16.56894 | 621 ft | 15 kts | 321° |
| 2026-05-07 06:56 | 48.11631 | 16.56759 | 619 ft | 15 kts | 296° |
| 2026-05-07 06:56 | 48.11678 | 16.56615 | 621 ft | 16 kts | 296° |
| 2026-05-07 06:56 | 48.11719 | 16.56594 | 611 ft | 4 kts | 25° |
| 2026-05-07 06:57 | 48.11749 | 16.56617 | 614 ft | 4 kts | 26° |
| 2026-05-07 06:57 | 48.11764 | 16.56627 | 615 ft | 1 kts | 26° |
| 2026-05-07 06:57 | 48.11765 | 16.56628 | 616 ft | 0 kts | 26° |